createdAt,value
2023-01-15T00:02:08.566Z,1.52
2023-01-15T00:05:10.104Z,1.23
2023-01-15T00:08:11.597Z,1.30
2023-01-15T00:11:13.310Z,1.35
2023-01-15T00:14:14.817Z,1.65
2023-01-15T00:17:16.715Z,1.05
2023-01-15T00:20:18.463Z,0.70
2023-01-15T00:23:39.895Z,1.02
2023-01-15T00:27:00.354Z,0.50
2023-01-15T00:30:01.979Z,0.73
2023-01-15T00:33:03.609Z,1.00
2023-01-15T00:36:05.472Z,1.63
2023-01-15T00:39:07.036Z,0.85
2023-01-15T00:42:09.348Z,0.68
2023-01-15T00:45:11.882Z,0.75
2023-01-15T00:48:13.605Z,0.50
2023-01-15T00:51:15.357Z,1.38
2023-01-15T00:54:18.013Z,1.40
2023-01-15T00:57:19.698Z,1.33
2023-01-15T01:00:21.616Z,1.00
2023-01-15T01:03:24.140Z,0.85
2023-01-15T01:06:25.939Z,0.95
2023-01-15T01:09:27.533Z,1.25
2023-01-15T01:12:29.351Z,0.98
2023-01-15T01:15:33.674Z,1.58
2023-01-15T01:18:35.143Z,0.85
2023-01-15T01:21:38.225Z,1.08
2023-01-15T01:24:39.806Z,0.65
2023-01-15T01:27:44.951Z,0.50
2023-01-15T01:30:46.536Z,1.05
2023-01-15T01:33:50.150Z,0.93
2023-01-15T01:36:51.662Z,0.60
2023-01-15T01:39:53.229Z,0.88
2023-01-15T01:42:54.721Z,3.10
2023-01-15T01:45:56.447Z,0.82
2023-01-15T01:49:17.405Z,0.68
2023-01-15T01:52:25.257Z,0.50
2023-01-15T01:55:28.349Z,0.77
2023-01-15T01:58:32.825Z,1.20
2023-01-15T02:01:34.901Z,0.77
2023-01-15T02:04:37.675Z,2.45
2023-01-15T02:07:40.154Z,0.77
2023-01-15T02:10:41.809Z,1.85
2023-01-15T02:14:04.976Z,0.93
2023-01-15T02:17:09.643Z,2.30
2023-01-15T02:20:28.806Z,1.75
2023-01-15T02:24:09.752Z,3.70
2023-01-15T02:27:15.440Z,2.50
2023-01-15T02:30:23.319Z,3.38
2023-01-15T02:33:44.536Z,1.50
2023-01-15T02:36:50.627Z,1.92
2023-01-15T02:40:02.128Z,1.40
2023-01-15T02:43:07.463Z,1.83
2023-01-15T02:46:10.134Z,1.15
2023-01-15T02:49:17.164Z,2.22
2023-01-15T02:52:25.668Z,0.85
2023-01-15T02:55:35.846Z,2.95
2023-01-15T02:58:41.485Z,1.90
2023-01-15T03:01:51.268Z,1.65
2023-01-15T03:04:53.215Z,1.27
2023-01-15T03:08:00.709Z,2.75
2023-01-15T03:11:11.163Z,0.75
2023-01-15T03:14:26.737Z,1.90
2023-01-15T03:17:43.654Z,0.93
2023-01-15T03:20:51.982Z,0.57
2023-01-15T03:23:54.955Z,1.90
2023-01-15T03:27:01.599Z,0.40
2023-01-15T03:30:08.795Z,0.88
2023-01-15T03:36:18.153Z,1.15
2023-01-15T03:39:22.662Z,0.90
2023-01-15T03:43:16.670Z,0.75
2023-01-15T03:46:44.133Z,1.17
2023-01-15T03:50:10.637Z,1.15
2023-01-15T03:53:23.041Z,0.77
2023-01-15T03:56:37.428Z,0.65
2023-01-15T03:59:46.053Z,0.88
2023-01-15T04:02:49.660Z,1.88
2023-01-15T04:05:56.803Z,0.55
2023-01-15T04:08:59.333Z,0.60
2023-01-15T04:12:02.705Z,1.58
2023-01-15T04:15:12.059Z,1.33
2023-01-15T04:18:13.799Z,1.13
2023-01-15T04:21:16.575Z,2.00
2023-01-15T04:24:18.095Z,2.25
2023-01-15T04:27:19.614Z,0.50
2023-01-15T04:30:21.509Z,0.70
2023-01-15T04:33:23.012Z,0.82
2023-01-15T04:36:24.549Z,1.65
2023-01-15T04:39:26.063Z,0.98
2023-01-15T04:42:45.882Z,0.63
2023-01-15T04:45:47.872Z,0.65
2023-01-15T04:48:49.473Z,0.40
2023-01-15T04:51:51.120Z,0.60
2023-01-15T04:54:55.447Z,0.40
2023-01-15T04:57:57.407Z,0.93
2023-01-15T05:01:00.716Z,0.30
2023-01-15T05:04:02.780Z,0.93
2023-01-15T05:07:05.051Z,1.00
2023-01-15T05:10:07.192Z,1.10
2023-01-15T05:13:08.640Z,0.60
2023-01-15T05:16:15.623Z,0.70
2023-01-15T05:19:17.226Z,0.52
2023-01-15T05:22:18.790Z,0.30
2023-01-15T05:25:20.278Z,0.60
2023-01-15T05:28:21.776Z,1.42
2023-01-15T05:31:24.235Z,0.35
2023-01-15T05:34:25.973Z,0.85
2023-01-15T05:37:30.191Z,0.77
2023-01-15T05:40:32.146Z,0.43
2023-01-15T05:43:33.601Z,1.23
2023-01-15T05:46:36.926Z,0.45
2023-01-15T05:49:38.497Z,0.55
2023-01-15T05:52:40.012Z,0.95
2023-01-15T05:55:41.511Z,0.38
2023-01-15T05:58:43.051Z,0.68
2023-01-15T06:01:44.903Z,0.30
2023-01-15T06:04:46.422Z,1.38
2023-01-15T06:07:49.542Z,0.55
2023-01-15T06:10:51.055Z,0.50
2023-01-15T06:13:52.823Z,0.88
2023-01-15T06:16:54.357Z,0.75
2023-01-15T06:19:55.898Z,1.13
2023-01-15T06:22:57.400Z,0.70
2023-01-15T06:26:04.709Z,0.93
2023-01-15T06:29:06.604Z,0.50
2023-01-15T06:32:08.120Z,0.57
2023-01-15T06:35:10.272Z,1.17
2023-01-15T06:38:11.780Z,0.80
2023-01-15T06:41:37.522Z,0.52
2023-01-15T06:44:57.513Z,0.73
2023-01-15T06:47:59.262Z,0.38
2023-01-15T06:51:00.813Z,0.55
2023-01-15T06:54:02.329Z,0.40
2023-01-15T06:57:03.957Z,1.27
2023-01-15T07:00:07.181Z,1.30
2023-01-15T07:03:09.252Z,0.60
2023-01-15T07:06:12.770Z,0.40
2023-01-15T07:09:14.774Z,1.15
2023-01-15T07:12:17.254Z,0.85
2023-01-15T07:15:18.755Z,2.70
2023-01-15T07:18:20.245Z,1.88
2023-01-15T07:21:22.810Z,1.83
2023-01-15T07:24:24.345Z,1.67
2023-01-15T07:27:25.849Z,4.38
2023-01-15T07:30:27.412Z,2.05
2023-01-15T07:33:29.655Z,1.63
2023-01-15T07:36:31.152Z,2.63
2023-01-15T07:39:33.167Z,2.20
2023-01-15T07:42:53.367Z,5.65
2023-01-15T07:46:13.818Z,1.50
2023-01-15T07:49:34.088Z,2.90
2023-01-15T07:52:35.616Z,2.10
2023-01-15T07:55:37.258Z,3.63
2023-01-15T07:58:39.841Z,2.97
2023-01-15T08:01:41.425Z,2.00
2023-01-15T08:04:43.242Z,1.77
2023-01-15T08:07:45.306Z,3.20
2023-01-15T08:11:05.277Z,3.05
2023-01-15T08:14:25.086Z,1.50
2023-01-15T08:17:26.687Z,2.70
2023-01-15T08:20:28.300Z,1.70
2023-01-15T08:23:29.790Z,2.97
2023-01-15T08:26:31.270Z,1.35
2023-01-15T08:29:33.048Z,2.33
2023-01-15T08:32:34.639Z,2.88
2023-01-15T08:35:36.203Z,3.47
2023-01-15T08:38:37.684Z,2.00
2023-01-15T08:41:39.321Z,1.63
2023-01-15T08:44:40.788Z,4.13
2023-01-15T08:47:42.277Z,3.03
2023-01-15T08:50:43.733Z,2.85
2023-01-15T08:53:45.751Z,6.45
2023-01-15T08:56:47.987Z,7.60
2023-01-15T08:59:49.548Z,10.95
2023-01-15T09:02:51.621Z,13.32
2023-01-15T09:05:53.132Z,12.10
2023-01-15T09:08:54.658Z,11.73
2023-01-15T09:11:56.105Z,12.27
2023-01-15T09:15:01.899Z,13.23
2023-01-15T09:18:04.788Z,11.40
2023-01-15T09:21:06.643Z,12.23
2023-01-15T09:24:08.301Z,12.45
2023-01-15T09:27:11.803Z,13.18
2023-01-15T09:30:18.288Z,10.82
2023-01-15T09:36:27.945Z,15.00
2023-01-15T09:39:29.518Z,15.00
2023-01-15T09:42:45.674Z,10.38
2023-01-15T09:46:16.061Z,11.43
2023-01-15T09:49:37.763Z,14.27
2023-01-15T09:53:05.784Z,12.68
2023-01-15T09:56:20.484Z,12.00
2023-01-15T09:59:38.230Z,9.50
2023-01-15T10:02:51.201Z,10.93
2023-01-15T10:06:20.399Z,11.75
2023-01-15T10:09:31.269Z,10.35
2023-01-15T10:12:36.191Z,9.32
2023-01-15T10:15:43.978Z,11.00
2023-01-15T10:18:45.696Z,10.52
2023-01-15T10:22:00.711Z,12.30
2023-01-15T10:25:08.483Z,10.40
2023-01-15T10:28:19.223Z,10.07
2023-01-15T10:31:24.444Z,7.22
2023-01-15T10:34:47.720Z,9.18
2023-01-15T10:38:16.542Z,7.22
2023-01-15T10:41:31.864Z,6.35
2023-01-15T10:44:59.628Z,6.70
2023-01-15T10:48:22.391Z,7.07
2023-01-15T10:51:31.287Z,7.13
2023-01-15T10:54:41.497Z,7.00
2023-01-15T10:58:10.132Z,7.43
2023-01-15T11:01:19.636Z,5.55
2023-01-15T11:04:22.347Z,7.30
2023-01-15T11:07:36.856Z,7.70
2023-01-15T11:10:41.215Z,4.68
2023-01-15T11:14:11.767Z,9.73
2023-01-15T11:17:33.155Z,5.72
2023-01-15T11:20:42.713Z,6.93
2023-01-15T11:23:45.039Z,6.55
2023-01-15T11:26:50.451Z,8.05
2023-01-15T11:29:54.737Z,6.75
2023-01-15T11:32:58.302Z,10.25
2023-01-15T11:36:08.236Z,5.20
2023-01-15T11:39:27.810Z,4.82
2023-01-15T11:42:51.360Z,4.32
2023-01-15T11:46:11.580Z,4.72
2023-01-15T11:49:39.901Z,3.97
2023-01-15T11:52:54.991Z,9.00
2023-01-15T11:56:01.804Z,7.13
2023-01-15T11:59:10.158Z,5.32
2023-01-15T12:02:11.650Z,6.55
2023-01-15T12:05:20.788Z,6.47
2023-01-15T12:08:25.350Z,4.18
2023-01-15T12:11:42.218Z,5.90
2023-01-15T12:15:16.363Z,10.20
2023-01-15T12:18:31.338Z,4.18
2023-01-15T12:21:41.852Z,5.47
2023-01-15T12:25:09.668Z,3.92
2023-01-15T12:28:29.246Z,4.68
2023-01-15T12:31:47.477Z,3.70
2023-01-15T12:35:02.533Z,7.18
2023-01-15T12:38:13.969Z,4.28
2023-01-15T12:41:51.448Z,3.30
2023-01-15T12:45:08.374Z,4.05
2023-01-15T12:51:24.514Z,3.42
2023-01-15T12:54:36.746Z,4.85
2023-01-15T12:57:43.790Z,4.82
2023-01-15T13:00:46.089Z,5.57
2023-01-15T13:04:06.312Z,6.05
2023-01-15T13:07:18.145Z,3.70
2023-01-15T13:10:24.013Z,5.80
2023-01-15T13:13:30.295Z,3.78
2023-01-15T13:16:50.836Z,3.40
2023-01-15T13:20:14.133Z,3.38
2023-01-15T13:23:36.240Z,2.10
2023-01-15T13:26:38.136Z,4.60
2023-01-15T13:30:30.540Z,2.53
2023-01-15T13:33:39.845Z,3.55
2023-01-15T13:36:48.094Z,3.85
2023-01-15T13:39:52.635Z,3.70
2023-01-15T13:42:55.983Z,2.22
2023-01-15T13:45:58.123Z,2.75
2023-01-15T13:48:59.832Z,3.10
2023-01-15T13:52:04.447Z,2.70
2023-01-15T13:55:19.382Z,3.45
2023-01-15T13:58:25.247Z,5.45
2023-01-15T14:01:34.925Z,4.35
2023-01-15T14:04:38.660Z,2.92
2023-01-15T14:07:40.210Z,3.42
2023-01-15T14:10:41.963Z,2.78
2023-01-15T14:13:51.548Z,1.33
2023-01-15T14:17:44.076Z,3.40
2023-01-15T14:21:00.789Z,1.73
2023-01-15T14:24:08.513Z,3.10
2023-01-15T14:27:23.509Z,2.90
2023-01-15T14:30:49.427Z,3.05
2023-01-15T14:34:12.928Z,5.82
2023-01-15T14:37:17.379Z,2.45
2023-01-15T14:40:30.631Z,2.58
2023-01-15T14:43:35.677Z,2.35
2023-01-15T14:46:41.230Z,4.38
2023-01-15T14:49:49.914Z,4.00
2023-01-15T14:52:53.654Z,2.58
2023-01-15T14:56:14.060Z,2.72
2023-01-15T14:59:44.596Z,3.60
2023-01-15T15:02:48.641Z,1.52
2023-01-15T15:05:51.143Z,4.72
2023-01-15T15:08:59.057Z,3.30
2023-01-15T15:12:28.507Z,4.05
2023-01-15T15:15:46.487Z,3.13
2023-01-15T15:18:58.275Z,3.42
2023-01-15T15:22:05.831Z,3.63
2023-01-15T15:25:12.122Z,2.25
2023-01-15T15:28:13.583Z,2.72
2023-01-15T15:31:15.237Z,4.80
2023-01-15T15:34:26.046Z,3.22
2023-01-15T15:37:28.759Z,4.68
2023-01-15T15:40:34.255Z,4.20
2023-01-15T15:44:11.090Z,3.67
2023-01-15T15:47:40.103Z,6.47
2023-01-15T15:50:41.589Z,4.45
2023-01-15T15:53:43.042Z,2.83
2023-01-15T15:56:50.754Z,3.35
2023-01-15T15:59:53.027Z,4.38
2023-01-15T16:02:54.574Z,3.65
2023-01-15T16:06:05.227Z,7.18
2023-01-15T16:09:09.670Z,3.92
2023-01-15T16:12:13.997Z,3.50
2023-01-15T16:15:24.589Z,6.63
2023-01-15T16:18:31.487Z,6.90
2023-01-15T16:21:40.070Z,5.18
2023-01-15T16:24:41.610Z,2.92
2023-01-15T16:27:43.169Z,4.18
2023-01-15T16:30:44.799Z,5.63
2023-01-15T16:33:47.367Z,4.38
2023-01-15T16:36:49.173Z,7.15
2023-01-15T16:39:51.453Z,4.60
2023-01-15T16:43:07.066Z,6.07
2023-01-15T16:46:20.213Z,4.53
2023-01-15T16:49:21.631Z,3.35
2023-01-15T16:52:52.568Z,7.43
2023-01-15T16:55:56.954Z,3.33
2023-01-15T16:58:58.402Z,4.35
2023-01-15T17:02:09.073Z,2.58
2023-01-15T17:05:24.856Z,5.90
2023-01-15T17:08:48.282Z,3.42
2023-01-15T17:11:51.642Z,3.45
2023-01-15T17:14:53.519Z,2.72
2023-01-15T17:17:56.181Z,3.58
2023-01-15T17:20:59.660Z,2.78
2023-01-15T17:24:03.844Z,3.60
2023-01-15T17:27:05.566Z,5.85
2023-01-15T17:30:07.702Z,2.85
2023-01-15T17:33:12.373Z,2.08
2023-01-15T17:36:13.825Z,1.88
2023-01-15T17:39:15.293Z,3.38
2023-01-15T17:42:18.950Z,2.10
2023-01-15T17:45:24.760Z,2.72
2023-01-15T17:48:26.271Z,2.70
2023-01-15T17:51:30.276Z,3.38
2023-01-15T17:54:50.699Z,2.38
2023-01-15T17:58:10.782Z,1.95
2023-01-15T18:01:37.757Z,4.10
2023-01-15T18:05:07.204Z,3.63
2023-01-15T18:08:09.993Z,4.03
2023-01-15T18:11:11.514Z,1.02
2023-01-15T18:14:13.432Z,2.50
2023-01-15T18:17:15.045Z,2.67
2023-01-15T18:20:16.616Z,2.10
2023-01-15T18:23:18.563Z,3.80
2023-01-15T18:26:20.036Z,3.30
2023-01-15T18:29:22.154Z,2.30
2023-01-15T18:32:23.633Z,2.58
2023-01-15T18:35:25.089Z,3.35
2023-01-15T18:38:26.561Z,2.38
2023-01-15T18:41:48.412Z,2.67
2023-01-15T18:45:08.294Z,2.38
2023-01-15T18:48:10.039Z,1.92
2023-01-15T18:51:11.575Z,6.30
2023-01-15T18:54:13.164Z,6.57
2023-01-15T18:57:16.094Z,5.45
2023-01-15T19:00:18.948Z,12.82
2023-01-15T19:03:20.437Z,10.52
2023-01-15T19:06:21.938Z,13.18
2023-01-15T19:09:24.301Z,14.20
2023-01-15T19:12:25.776Z,13.63
2023-01-15T19:15:45.907Z,15.23
2023-01-15T19:18:53.378Z,14.73
2023-01-15T19:22:14.077Z,11.23
2023-01-15T19:25:16.536Z,10.20
2023-01-15T19:28:20.545Z,11.95
2023-01-15T19:31:38.950Z,8.95
2023-01-15T19:34:40.597Z,14.07
2023-01-15T19:37:42.151Z,12.48
2023-01-15T19:40:43.640Z,9.35
2023-01-15T19:44:03.794Z,14.30
2023-01-15T19:47:30.351Z,10.57
2023-01-15T19:50:38.725Z,10.65
2023-01-15T19:53:40.548Z,9.25
2023-01-15T19:56:42.216Z,9.35
2023-01-15T19:59:47.816Z,8.40
2023-01-15T20:02:49.468Z,8.37
2023-01-15T20:05:51.050Z,11.27
2023-01-15T20:08:52.523Z,7.78
2023-01-15T20:12:29.205Z,7.43
2023-01-15T20:15:31.791Z,6.68
2023-01-15T20:18:33.272Z,9.13
2023-01-15T20:21:34.829Z,8.60
2023-01-15T20:24:36.355Z,9.75
2023-01-15T20:27:40.117Z,5.55
2023-01-15T20:30:42.597Z,3.92
2023-01-15T20:33:44.547Z,6.18
2023-01-15T20:36:46.090Z,7.55
2023-01-15T20:39:47.596Z,4.28
2023-01-15T20:43:07.864Z,5.97
2023-01-15T20:46:12.230Z,6.57
2023-01-15T20:49:27.537Z,4.57
2023-01-15T20:52:29.013Z,4.57
2023-01-15T20:55:54.678Z,5.05
2023-01-15T20:58:58.322Z,5.72
2023-01-15T21:01:59.870Z,6.53
2023-01-15T21:05:01.549Z,3.78
2023-01-15T21:08:03.733Z,4.40
2023-01-15T21:11:05.572Z,5.00
2023-01-15T21:14:07.087Z,5.35
2023-01-15T21:17:09.487Z,3.10
2023-01-15T21:20:12.910Z,5.03
2023-01-15T21:23:14.358Z,5.47
2023-01-15T21:26:16.317Z,3.28
2023-01-15T21:29:17.807Z,4.10
2023-01-15T21:32:19.286Z,5.22
2023-01-15T21:35:20.865Z,4.50
2023-01-15T21:38:22.387Z,4.03
2023-01-15T21:41:45.108Z,5.03
2023-01-15T21:44:46.565Z,3.55
2023-01-15T21:47:48.076Z,2.50
2023-01-15T21:50:49.558Z,3.08
2023-01-15T21:53:51.056Z,4.25
2023-01-15T21:56:53.616Z,2.83
2023-01-15T21:59:55.408Z,3.50
2023-01-15T22:02:58.335Z,3.85
2023-01-15T22:06:04.834Z,3.03
2023-01-15T22:09:06.394Z,2.88
2023-01-15T22:12:07.910Z,2.28
2023-01-15T22:15:10.814Z,1.73
2023-01-15T22:18:12.356Z,5.00
2023-01-15T22:21:15.345Z,2.75
2023-01-15T22:24:19.052Z,2.25
2023-01-15T22:27:20.688Z,2.00
2023-01-15T22:30:22.217Z,2.10
2023-01-15T22:33:23.695Z,2.00
2023-01-15T22:36:26.994Z,3.05
2023-01-15T22:39:29.163Z,2.10
2023-01-15T22:42:32.756Z,2.80
2023-01-15T22:45:34.297Z,2.00
2023-01-15T22:48:35.894Z,1.50
2023-01-15T22:51:37.482Z,2.20
2023-01-15T22:54:39.166Z,3.03
2023-01-15T22:57:40.626Z,1.23
2023-01-15T23:00:42.061Z,2.72
2023-01-15T23:03:43.650Z,1.75
2023-01-15T23:06:45.693Z,1.95
2023-01-15T23:09:47.257Z,2.60
2023-01-15T23:12:48.701Z,2.28
2023-01-15T23:15:58.439Z,2.17
2023-01-15T23:19:01.351Z,2.33
2023-01-15T23:22:02.831Z,3.30
2023-01-15T23:25:05.180Z,2.08
2023-01-15T23:28:06.916Z,1.45
2023-01-15T23:31:09.427Z,2.33
2023-01-15T23:34:11.320Z,0.85
2023-01-15T23:37:12.821Z,1.65
2023-01-15T23:40:14.653Z,1.25
2023-01-15T23:43:35.837Z,2.78
2023-01-15T23:46:37.538Z,1.77
2023-01-15T23:49:39.263Z,2.78
2023-01-15T23:52:40.788Z,2.08
2023-01-15T23:55:42.277Z,1.25
2023-01-15T23:58:45.080Z,2.17
